createdAt,value
2023-08-29T00:01:11.456Z,82.37
2023-08-29T00:03:38.058Z,81.29
2023-08-29T00:06:05.785Z,81.28
2023-08-29T00:08:35.690Z,81.40
2023-08-29T00:11:06.041Z,81.96
2023-08-29T00:13:32.618Z,81.84
2023-08-29T00:15:59.534Z,82.71
2023-08-29T00:18:25.981Z,82.37
2023-08-29T00:20:53.388Z,82.03
2023-08-29T00:23:19.847Z,81.77
2023-08-29T00:25:47.467Z,81.74
2023-08-29T00:28:14.629Z,81.79
2023-08-29T00:30:44.725Z,81.67
2023-08-29T00:33:12.214Z,81.89
2023-08-29T00:35:38.632Z,81.34
2023-08-29T00:38:05.424Z,81.60
2023-08-29T00:40:32.964Z,81.91
2023-08-29T00:43:00.745Z,81.40
2023-08-29T00:45:30.744Z,81.18
2023-08-29T00:47:57.605Z,81.11
2023-08-29T00:50:26.908Z,81.28
2023-08-29T00:52:59.417Z,81.45
2023-08-29T00:55:27.888Z,82.23
2023-08-29T00:57:57.777Z,81.69
2023-08-29T01:00:26.122Z,81.96
2023-08-29T01:02:52.638Z,82.04
2023-08-29T01:05:19.092Z,81.69
2023-08-29T01:07:45.629Z,81.59
2023-08-29T01:10:12.307Z,81.72
2023-08-29T01:12:48.968Z,81.98
2023-08-29T01:15:30.611Z,81.58
2023-08-29T01:18:02.185Z,81.56
2023-08-29T01:20:31.073Z,80.98
2023-08-29T01:23:24.715Z,81.34
2023-08-29T01:26:14.174Z,81.64
2023-08-29T01:28:44.441Z,81.81
2023-08-29T01:31:12.321Z,81.74
2023-08-29T01:33:40.344Z,81.91
2023-08-29T01:36:07.376Z,81.79
2023-08-29T01:38:33.854Z,82.22
2023-08-29T01:41:00.342Z,82.07
2023-08-29T01:43:26.848Z,81.20
2023-08-29T01:45:53.387Z,80.56
2023-08-29T01:48:19.912Z,80.47
2023-08-29T01:50:47.105Z,80.84
2023-08-29T01:53:13.845Z,81.28
2023-08-29T01:55:41.408Z,81.43
2023-08-29T01:58:12.340Z,81.65
2023-08-29T02:00:39.483Z,81.67
2023-08-29T02:03:06.249Z,81.83
2023-08-29T02:05:33.522Z,81.37
2023-08-29T02:08:00.258Z,81.58
2023-08-29T02:10:26.832Z,81.83
2023-08-29T02:12:53.293Z,81.60
2023-08-29T02:15:19.690Z,81.84
2023-08-29T02:17:46.331Z,81.64
2023-08-29T02:20:12.874Z,81.80
2023-08-29T02:22:39.297Z,81.99
2023-08-29T02:25:06.076Z,82.17
2023-08-29T02:27:35.915Z,82.01
2023-08-29T02:30:04.390Z,82.23
2023-08-29T02:32:30.855Z,82.16
2023-08-29T02:34:57.407Z,81.82
2023-08-29T02:37:25.115Z,81.48
2023-08-29T02:39:51.569Z,81.84
2023-08-29T02:42:18.020Z,82.16
2023-08-29T02:44:44.521Z,82.01
2023-08-29T02:47:10.973Z,81.19
2023-08-29T02:49:37.599Z,81.28
2023-08-29T02:52:05.222Z,81.35
2023-08-29T02:54:31.636Z,81.25
2023-08-29T02:56:58.145Z,81.36
2023-08-29T02:59:24.585Z,81.47
2023-08-29T03:01:51.029Z,81.83
2023-08-29T03:04:17.539Z,82.59
2023-08-29T03:06:43.985Z,82.23
2023-08-29T03:09:10.955Z,81.99
2023-08-29T03:11:37.460Z,82.10
2023-08-29T03:14:05.058Z,82.67
2023-08-29T03:16:32.135Z,82.10
2023-08-29T03:18:58.698Z,81.88
2023-08-29T03:21:25.167Z,81.47
2023-08-29T03:23:51.663Z,81.58
2023-08-29T03:26:18.186Z,82.16
2023-08-29T03:28:46.543Z,81.51
2023-08-29T03:31:14.477Z,81.35
2023-08-29T03:33:42.313Z,81.44
2023-08-29T03:36:09.654Z,81.42
2023-08-29T03:38:38.040Z,81.79
2023-08-29T03:41:05.910Z,82.05
2023-08-29T03:43:34.778Z,82.47
2023-08-29T03:46:03.623Z,82.11
2023-08-29T03:48:31.795Z,81.62
2023-08-29T03:51:08.331Z,81.45
2023-08-29T03:53:38.503Z,81.61
2023-08-29T03:56:06.787Z,81.91
2023-08-29T03:58:33.895Z,81.74
2023-08-29T04:01:00.816Z,82.04
2023-08-29T04:03:27.512Z,81.79
2023-08-29T04:05:54.266Z,81.91
2023-08-29T04:08:20.715Z,82.37
2023-08-29T04:10:47.763Z,82.10
2023-08-29T04:13:14.348Z,82.24
2023-08-29T04:15:40.917Z,82.22
2023-08-29T04:18:09.524Z,81.91
2023-08-29T04:20:36.404Z,81.80
2023-08-29T04:23:04.528Z,82.10
2023-08-29T04:25:31.591Z,82.11
2023-08-29T04:27:58.615Z,81.94
2023-08-29T04:30:25.132Z,81.92
2023-08-29T04:32:51.888Z,82.12
2023-08-29T04:35:18.676Z,82.01
2023-08-29T04:37:49.518Z,82.08
2023-08-29T04:40:17.960Z,82.17
2023-08-29T04:42:45.832Z,82.45
2023-08-29T04:45:12.391Z,82.47
2023-08-29T04:47:40.055Z,82.59
2023-08-29T04:50:07.732Z,82.29
2023-08-29T04:52:34.342Z,82.14
2023-08-29T04:55:01.067Z,82.07
2023-08-29T04:57:27.470Z,82.27
2023-08-29T04:59:53.958Z,82.50
2023-08-29T05:02:20.418Z,82.60
2023-08-29T05:04:48.706Z,82.69
2023-08-29T05:07:15.562Z,83.15
2023-08-29T05:09:42.424Z,82.95
2023-08-29T05:12:11.547Z,83.29
2023-08-29T05:14:41.461Z,83.17
2023-08-29T05:17:10.122Z,82.46
2023-08-29T05:19:36.770Z,82.53
2023-08-29T05:22:03.315Z,82.40
2023-08-29T05:24:29.994Z,83.07
2023-08-29T05:26:56.484Z,83.11
2023-08-29T05:29:22.988Z,83.83
2023-08-29T05:31:49.517Z,83.06
2023-08-29T05:34:16.099Z,82.98
2023-08-29T05:36:49.617Z,83.28
2023-08-29T05:39:16.277Z,83.54
2023-08-29T05:41:42.731Z,84.72
2023-08-29T05:44:15.525Z,84.60
2023-08-29T05:46:42.155Z,84.47
2023-08-29T05:49:09.131Z,84.41
2023-08-29T05:51:35.616Z,85.18
2023-08-29T05:54:02.126Z,84.79
2023-08-29T05:56:28.654Z,85.73
2023-08-29T05:58:55.073Z,85.71
2023-08-29T06:01:23.039Z,85.83
2023-08-29T06:03:54.893Z,86.54
2023-08-29T06:06:21.401Z,86.05
2023-08-29T06:08:48.082Z,86.61
2023-08-29T06:11:14.807Z,86.73
2023-08-29T06:13:41.226Z,86.97
2023-08-29T06:16:10.339Z,87.41
2023-08-29T06:18:36.909Z,88.13
2023-08-29T06:21:05.356Z,88.49
2023-08-29T06:23:31.888Z,88.31
2023-08-29T06:25:59.340Z,88.01
2023-08-29T06:28:34.959Z,87.89
2023-08-29T06:31:09.511Z,86.69
2023-08-29T06:33:39.382Z,86.24
2023-08-29T06:36:06.110Z,87.09
2023-08-29T06:38:35.497Z,88.11
2023-08-29T06:41:02.252Z,88.43
2023-08-29T06:43:28.759Z,89.22
2023-08-29T06:45:55.171Z,88.50
2023-08-29T06:48:21.732Z,88.76
2023-08-29T06:50:48.186Z,89.14
2023-08-29T06:53:17.378Z,89.66
2023-08-29T06:55:46.494Z,89.16
2023-08-29T06:58:12.931Z,89.75
2023-08-29T07:00:39.815Z,89.70
2023-08-29T07:03:06.389Z,89.67
2023-08-29T07:05:33.079Z,89.83
2023-08-29T07:08:00.744Z,89.12
2023-08-29T07:10:27.337Z,89.02
2023-08-29T07:12:53.885Z,89.40
2023-08-29T07:15:20.318Z,89.79
2023-08-29T07:17:46.845Z,89.24
2023-08-29T07:20:13.441Z,89.30
2023-08-29T07:22:44.349Z,89.59
2023-08-29T07:25:12.281Z,89.72
2023-08-29T07:27:39.193Z,90.13
2023-08-29T07:30:09.101Z,89.93
2023-08-29T07:32:35.609Z,90.26
2023-08-29T07:35:03.642Z,90.16
2023-08-29T07:37:30.305Z,89.70
2023-08-29T07:39:56.775Z,89.48
2023-08-29T07:42:23.484Z,89.59
2023-08-29T07:44:52.403Z,89.92
2023-08-29T07:47:18.933Z,89.56
2023-08-29T07:49:45.445Z,89.76
2023-08-29T07:52:12.064Z,89.71
2023-08-29T07:54:42.780Z,89.44
2023-08-29T07:57:09.447Z,89.68
2023-08-29T07:59:36.020Z,89.57
2023-08-29T08:02:02.577Z,89.83
2023-08-29T08:04:29.800Z,89.10
2023-08-29T08:06:56.264Z,89.17
2023-08-29T08:09:22.984Z,89.03
2023-08-29T08:11:49.596Z,89.11
2023-08-29T08:14:18.321Z,88.08
2023-08-29T08:16:44.933Z,88.09
2023-08-29T08:19:14.290Z,88.08
2023-08-29T08:21:41.024Z,88.07
2023-08-29T08:24:10.363Z,87.08
2023-08-29T08:26:37.040Z,87.06
2023-08-29T08:29:05.462Z,86.63
2023-08-29T08:31:32.516Z,86.01
2023-08-29T08:33:59.064Z,85.46
2023-08-29T08:36:25.659Z,85.57
2023-08-29T08:38:52.386Z,85.66
2023-08-29T08:41:19.844Z,85.54
2023-08-29T08:43:48.293Z,84.97
2023-08-29T08:46:17.406Z,85.10
2023-08-29T08:48:44.129Z,84.90
2023-08-29T08:51:12.429Z,84.32
2023-08-29T08:53:40.407Z,84.15
2023-08-29T08:56:09.120Z,82.54
2023-08-29T08:58:37.132Z,82.38
2023-08-29T09:01:04.259Z,81.46
2023-08-29T09:03:30.814Z,81.37
2023-08-29T09:06:00.200Z,80.29
2023-08-29T09:08:26.828Z,79.17
2023-08-29T09:10:54.516Z,78.64
2023-08-29T09:13:21.815Z,77.49
2023-08-29T09:15:48.564Z,79.16
2023-08-29T09:18:24.050Z,78.83
2023-08-29T09:20:52.880Z,78.59
2023-08-29T09:23:28.078Z,78.43
2023-08-29T09:25:54.918Z,77.02
2023-08-29T09:28:22.384Z,78.00
2023-08-29T09:30:50.946Z,78.56
2023-08-29T09:33:19.798Z,78.58
2023-08-29T09:35:46.645Z,78.60
2023-08-29T09:38:13.540Z,78.22
2023-08-29T09:40:50.447Z,78.05
2023-08-29T09:43:18.124Z,78.12
2023-08-29T09:45:52.462Z,77.69
2023-08-29T09:48:20.110Z,78.24
2023-08-29T09:50:48.203Z,77.67
2023-08-29T09:53:19.445Z,77.94
2023-08-29T09:55:48.171Z,78.08
2023-08-29T09:58:16.669Z,77.64
2023-08-29T10:00:43.764Z,77.94
2023-08-29T10:03:12.141Z,77.07
2023-08-29T10:05:44.112Z,77.32
2023-08-29T10:08:59.263Z,77.34
2023-08-29T10:11:28.700Z,74.92
2023-08-29T10:13:57.382Z,76.62
2023-08-29T10:16:24.767Z,75.23
2023-08-29T10:18:56.897Z,75.44
2023-08-29T10:21:24.926Z,75.22
2023-08-29T10:23:51.913Z,74.18
2023-08-29T10:26:18.751Z,74.07
2023-08-29T10:28:47.266Z,73.09
2023-08-29T10:31:14.198Z,74.15
2023-08-29T10:33:40.812Z,73.73
2023-08-29T10:36:09.767Z,72.07
2023-08-29T10:38:40.449Z,72.41
2023-08-29T10:41:12.170Z,73.04
2023-08-29T10:43:38.748Z,72.22
2023-08-29T10:46:11.316Z,69.85
2023-08-29T10:48:40.828Z,69.73
2023-08-29T10:51:12.549Z,71.31
2023-08-29T10:53:48.014Z,69.76
2023-08-29T10:56:15.321Z,69.18
2023-08-29T10:58:44.107Z,69.96
2023-08-29T11:01:26.169Z,69.65
2023-08-29T11:03:52.881Z,69.22
2023-08-29T11:06:21.071Z,67.32
2023-08-29T11:08:47.825Z,68.56
2023-08-29T11:11:20.433Z,68.52
2023-08-29T11:13:57.977Z,68.79
2023-08-29T11:16:25.477Z,67.36
2023-08-29T11:19:14.824Z,67.53
2023-08-29T11:21:44.140Z,66.76
2023-08-29T11:24:16.750Z,66.92
2023-08-29T11:26:47.972Z,67.53
2023-08-29T11:29:14.662Z,67.01
2023-08-29T11:31:43.905Z,67.03
2023-08-29T11:34:19.383Z,67.25
2023-08-29T11:36:51.940Z,65.69
2023-08-29T11:39:22.666Z,67.45
2023-08-29T11:41:57.139Z,67.21
2023-08-29T11:45:28.753Z,66.71
2023-08-29T11:47:24.794Z,66.48
2023-08-29T11:49:52.959Z,66.38
2023-08-29T11:52:25.375Z,67.05
2023-08-29T11:54:57.207Z,66.99
2023-08-29T11:57:24.390Z,66.55
2023-08-29T11:59:53.337Z,66.08
2023-08-29T12:02:22.521Z,66.04
2023-08-29T12:04:54.645Z,66.13
2023-08-29T12:07:21.329Z,66.40
2023-08-29T12:09:49.079Z,67.11
2023-08-29T12:12:37.386Z,67.42
2023-08-29T12:15:07.178Z,66.36
2023-08-29T12:17:35.235Z,67.06
2023-08-29T12:20:01.894Z,67.43
2023-08-29T12:22:35.677Z,66.99
2023-08-29T12:25:02.262Z,66.86
2023-08-29T12:27:29.055Z,66.50
2023-08-29T12:29:55.632Z,67.58
2023-08-29T12:32:29.003Z,67.38
2023-08-29T12:34:57.377Z,66.80
2023-08-29T12:37:25.625Z,66.60
2023-08-29T12:39:52.587Z,66.75
2023-08-29T12:42:19.188Z,66.60
2023-08-29T12:44:45.748Z,67.20
2023-08-29T12:47:12.160Z,67.51
2023-08-29T12:49:38.577Z,65.54
2023-08-29T12:52:05.370Z,65.43
2023-08-29T12:54:31.927Z,65.19
2023-08-29T12:56:58.321Z,64.70
2023-08-29T12:59:24.777Z,64.60
2023-08-29T13:01:54.481Z,63.86
2023-08-29T13:04:21.029Z,64.40
2023-08-29T13:06:47.425Z,63.74
2023-08-29T13:09:30.878Z,64.15
2023-08-29T13:12:03.246Z,64.48
2023-08-29T13:14:37.741Z,63.89
2023-08-29T13:17:05.307Z,61.21
2023-08-29T13:19:33.811Z,63.15
2023-08-29T13:22:01.773Z,63.93
2023-08-29T13:24:28.779Z,62.75
2023-08-29T13:26:55.340Z,62.36
2023-08-29T13:29:21.909Z,63.54
2023-08-29T13:31:50.585Z,63.55
2023-08-29T13:34:18.126Z,64.12
2023-08-29T13:36:44.637Z,63.68
2023-08-29T13:39:11.131Z,63.36
2023-08-29T13:41:37.589Z,63.84
2023-08-29T13:44:05.347Z,64.07
2023-08-29T13:46:31.992Z,64.83
2023-08-29T13:48:58.506Z,65.17
2023-08-29T13:51:27.768Z,65.18
2023-08-29T13:53:54.264Z,65.07
2023-08-29T13:56:20.740Z,63.91
2023-08-29T13:58:48.341Z,65.29
2023-08-29T14:01:14.836Z,65.64
2023-08-29T14:03:41.397Z,66.23
2023-08-29T14:06:07.927Z,66.40
2023-08-29T14:08:34.399Z,67.30
2023-08-29T14:11:05.555Z,66.95
2023-08-29T14:13:34.369Z,66.93
2023-08-29T14:16:04.379Z,67.90
2023-08-29T14:18:32.094Z,67.94
2023-08-29T14:20:58.737Z,67.02
2023-08-29T14:23:25.457Z,66.99
2023-08-29T14:25:51.966Z,67.20
2023-08-29T14:28:18.524Z,67.22
2023-08-29T14:30:45.865Z,68.14
2023-08-29T14:33:13.685Z,69.18
2023-08-29T14:35:40.532Z,68.77
2023-08-29T14:38:07.633Z,68.59
2023-08-29T14:40:34.553Z,69.43
2023-08-29T14:43:01.046Z,69.81
2023-08-29T14:45:27.812Z,69.79
2023-08-29T14:47:54.369Z,69.88
2023-08-29T14:50:21.530Z,70.31
2023-08-29T14:52:50.606Z,71.05
2023-08-29T14:55:21.969Z,71.31
2023-08-29T14:57:50.713Z,70.40
2023-08-29T15:00:17.374Z,71.17
2023-08-29T15:02:45.231Z,71.64
2023-08-29T15:05:13.068Z,71.92
2023-08-29T15:07:40.581Z,71.55
2023-08-29T15:10:08.026Z,72.37
2023-08-29T15:12:35.116Z,72.68
2023-08-29T15:15:02.405Z,73.47
2023-08-29T15:17:31.968Z,72.75
2023-08-29T15:19:58.617Z,73.56
2023-08-29T15:22:25.233Z,72.75
2023-08-29T15:24:53.846Z,73.32
2023-08-29T15:27:20.753Z,72.94
2023-08-29T15:29:47.262Z,72.96
2023-08-29T15:32:13.703Z,73.05
2023-08-29T15:34:40.256Z,72.55
2023-08-29T15:37:07.111Z,72.70
2023-08-29T15:39:34.176Z,72.22
2023-08-29T15:42:00.904Z,72.12
2023-08-29T15:44:33.331Z,72.25
2023-08-29T15:47:00.525Z,72.51
2023-08-29T15:49:39.115Z,72.36
2023-08-29T15:52:08.499Z,72.16
2023-08-29T15:54:34.945Z,72.43
2023-08-29T15:57:04.812Z,73.10
2023-08-29T15:59:31.299Z,72.39
2023-08-29T16:01:58.677Z,72.28
2023-08-29T16:04:31.364Z,72.17
2023-08-29T16:07:00.928Z,72.08
2023-08-29T16:09:30.756Z,72.30
2023-08-29T16:12:02.378Z,72.60
2023-08-29T16:14:29.895Z,72.43
2023-08-29T16:16:57.942Z,72.81
2023-08-29T16:19:24.758Z,72.88
2023-08-29T16:22:17.783Z,72.97
2023-08-29T16:27:25.844Z,72.58
2023-08-29T16:29:55.841Z,72.16
2023-08-29T16:32:22.287Z,71.81
2023-08-29T16:34:48.994Z,71.88
2023-08-29T16:37:15.471Z,71.45
2023-08-29T16:39:41.946Z,71.06
2023-08-29T16:42:08.474Z,71.24
2023-08-29T16:44:35.463Z,70.82
2023-08-29T16:47:02.049Z,71.46
2023-08-29T16:49:28.717Z,70.99
2023-08-29T16:51:56.195Z,71.58
2023-08-29T16:54:29.527Z,71.40
2023-08-29T16:56:56.202Z,71.42
2023-08-29T16:59:22.739Z,72.67
2023-08-29T17:01:49.345Z,71.94
2023-08-29T17:04:15.842Z,71.58
2023-08-29T17:06:42.648Z,71.37
2023-08-29T17:09:09.400Z,71.23
2023-08-29T17:11:35.998Z,71.13
2023-08-29T17:14:03.436Z,70.83
2023-08-29T17:16:30.675Z,71.48
2023-08-29T17:18:57.349Z,71.43
2023-08-29T17:21:23.908Z,71.58
2023-08-29T17:23:50.571Z,71.82
2023-08-29T17:26:19.023Z,71.12
2023-08-29T17:28:45.756Z,71.44
2023-08-29T17:31:12.540Z,71.35
2023-08-29T17:33:39.199Z,72.19
2023-08-29T17:36:07.145Z,72.91
2023-08-29T17:38:33.796Z,73.78
2023-08-29T17:41:01.706Z,74.16
2023-08-29T17:43:29.299Z,73.47
2023-08-29T17:45:57.583Z,74.05
2023-08-29T17:48:27.000Z,74.15
2023-08-29T17:50:58.156Z,74.04
2023-08-29T17:53:25.053Z,72.02
2023-08-29T17:55:54.479Z,72.25
2023-08-29T17:58:25.146Z,72.56
2023-08-29T18:00:53.226Z,72.64
2023-08-29T18:03:20.345Z,72.67
2023-08-29T18:05:51.597Z,72.23
2023-08-29T18:08:19.618Z,72.53
2023-08-29T18:10:49.659Z,72.92
2023-08-29T18:13:17.894Z,72.89
2023-08-29T18:15:44.397Z,73.45
2023-08-29T18:18:21.631Z,73.80
2023-08-29T18:20:51.170Z,73.60
2023-08-29T18:23:19.636Z,74.02
2023-08-29T18:25:46.915Z,74.00
2023-08-29T18:28:13.397Z,73.86
2023-08-29T18:30:40.045Z,73.84
2023-08-29T18:33:06.980Z,73.83
2023-08-29T18:35:37.320Z,74.00
2023-08-29T18:38:07.349Z,73.54
2023-08-29T18:40:34.125Z,73.82
2023-08-29T18:43:01.155Z,73.35
2023-08-29T18:45:27.648Z,73.51
2023-08-29T18:47:54.149Z,73.43
2023-08-29T18:50:23.438Z,73.44
2023-08-29T18:52:49.864Z,73.40
2023-08-29T18:55:19.264Z,73.72
2023-08-29T18:57:46.298Z,72.60
2023-08-29T19:00:13.667Z,72.86
2023-08-29T19:02:40.857Z,72.99
2023-08-29T19:05:08.761Z,73.38
2023-08-29T19:07:38.867Z,73.78
2023-08-29T19:10:06.660Z,74.00
2023-08-29T19:12:33.522Z,73.83
2023-08-29T19:15:01.845Z,73.89
2023-08-29T19:17:29.103Z,73.77
2023-08-29T19:19:55.573Z,74.26
2023-08-29T19:22:22.533Z,74.14
2023-08-29T19:24:49.093Z,74.51
2023-08-29T19:27:23.863Z,74.95
2023-08-29T19:29:53.611Z,75.23
2023-08-29T19:32:20.179Z,75.71
2023-08-29T19:34:47.320Z,75.94
2023-08-29T19:37:13.918Z,76.39
2023-08-29T19:39:40.548Z,76.57
2023-08-29T19:42:07.105Z,77.77
2023-08-29T19:44:33.550Z,77.08
2023-08-29T19:47:02.758Z,76.93
2023-08-29T19:49:38.092Z,77.39
2023-08-29T19:52:06.089Z,77.44
2023-08-29T19:54:32.650Z,77.93
2023-08-29T19:56:59.269Z,77.92
2023-08-29T19:59:26.027Z,77.78
2023-08-29T20:01:52.458Z,77.81
2023-08-29T20:04:19.067Z,77.65
2023-08-29T20:06:45.499Z,77.54
2023-08-29T20:09:12.537Z,77.38
2023-08-29T20:11:39.326Z,77.71
2023-08-29T20:14:05.879Z,78.00
2023-08-29T20:16:32.479Z,77.89
2023-08-29T20:18:58.981Z,78.47
2023-08-29T20:21:25.462Z,78.97
2023-08-29T20:24:02.043Z,78.99
2023-08-29T20:26:30.565Z,79.14
2023-08-29T20:28:57.232Z,79.78
2023-08-29T20:31:23.973Z,79.83
2023-08-29T20:33:50.826Z,79.81
2023-08-29T20:36:19.545Z,79.86
2023-08-29T20:38:46.079Z,79.04
2023-08-29T20:41:12.523Z,79.64
2023-08-29T20:43:39.059Z,79.80
2023-08-29T20:46:05.518Z,80.11
2023-08-29T20:48:32.289Z,80.41
2023-08-29T20:51:02.604Z,80.05
2023-08-29T20:53:35.722Z,79.91
2023-08-29T20:56:03.372Z,80.13
2023-08-29T20:58:29.796Z,80.03
2023-08-29T21:01:00.481Z,80.11
2023-08-29T21:03:32.786Z,80.04
2023-08-29T21:05:59.584Z,80.30
2023-08-29T21:08:26.778Z,80.33
2023-08-29T21:10:54.338Z,80.37
2023-08-29T21:13:28.204Z,79.82
2023-08-29T21:15:54.697Z,80.23
2023-08-29T21:18:21.143Z,80.15
2023-08-29T21:20:55.880Z,80.08
2023-08-29T21:23:23.375Z,79.81
2023-08-29T21:25:51.051Z,79.67
2023-08-29T21:28:19.062Z,79.74
2023-08-29T21:30:46.111Z,79.44
2023-08-29T21:33:13.751Z,79.74
2023-08-29T21:35:41.851Z,79.27
2023-08-29T21:38:09.367Z,79.83
2023-08-29T21:40:43.766Z,80.05
2023-08-29T21:43:15.480Z,79.88
2023-08-29T21:45:42.152Z,80.04
2023-08-29T21:48:10.790Z,80.40
2023-08-29T21:50:42.369Z,80.25
2023-08-29T21:53:11.121Z,80.52
2023-08-29T21:55:39.244Z,80.26
2023-08-29T21:58:06.980Z,80.26
2023-08-29T22:00:35.373Z,80.37
2023-08-29T22:03:03.205Z,80.55
2023-08-29T22:05:31.364Z,81.13
2023-08-29T22:08:03.904Z,80.92
2023-08-29T22:10:30.443Z,80.72
2023-08-29T22:12:56.852Z,81.14
2023-08-29T22:15:28.856Z,80.72
2023-08-29T22:17:55.507Z,80.82
2023-08-29T22:20:22.067Z,81.08
2023-08-29T22:22:51.256Z,81.50
2023-08-29T22:25:18.449Z,81.82
2023-08-29T22:27:44.923Z,81.43
2023-08-29T22:30:12.586Z,81.94
2023-08-29T22:32:39.062Z,81.48
2023-08-29T22:35:06.307Z,81.00
2023-08-29T22:37:32.975Z,81.89
2023-08-29T22:39:59.482Z,81.68
2023-08-29T22:42:25.973Z,81.33
2023-08-29T22:44:52.578Z,81.05
2023-08-29T22:47:19.915Z,81.12
2023-08-29T22:49:46.493Z,81.29
2023-08-29T22:52:14.848Z,81.19
2023-08-29T22:54:41.858Z,81.62
2023-08-29T22:57:08.275Z,80.76
2023-08-29T22:59:34.907Z,80.99
2023-08-29T23:02:04.268Z,81.08
2023-08-29T23:04:30.751Z,81.18
2023-08-29T23:07:04.218Z,81.34
2023-08-29T23:09:34.543Z,81.12
2023-08-29T23:12:02.065Z,81.57
2023-08-29T23:14:29.206Z,81.22
2023-08-29T23:16:56.414Z,81.09
2023-08-29T23:19:26.525Z,80.73
2023-08-29T23:21:53.988Z,80.91
2023-08-29T23:24:21.526Z,80.80
2023-08-29T23:26:50.967Z,80.89
2023-08-29T23:29:18.357Z,80.51
2023-08-29T23:31:45.215Z,80.25
2023-08-29T23:34:11.781Z,80.56
2023-08-29T23:36:38.196Z,80.88
2023-08-29T23:39:04.915Z,80.53
2023-08-29T23:41:31.398Z,81.03
2023-08-29T23:43:57.787Z,80.99
2023-08-29T23:46:24.305Z,80.81
2023-08-29T23:48:50.891Z,80.81
2023-08-29T23:51:17.423Z,80.92
2023-08-29T23:53:43.929Z,81.10
2023-08-29T23:56:10.482Z,81.07
2023-08-29T23:58:37.003Z,81.26
